sensor_id;sensor_type;location;lat;lon;timestamp;P1;durP1;ratioP1;P2;durP2;ratioP2
59974;SDS011;62136;-35.664;-63.766;2023-08-12T00:02:14;4.22;;;1.10;;
59974;SDS011;62136;-35.664;-63.766;2023-08-12T00:04:41;3.40;;;1.50;;
59974;SDS011;62136;-35.664;-63.766;2023-08-12T00:07:08;1.85;;;1.02;;
59974;SDS011;62136;-35.664;-63.766;2023-08-12T00:09:36;3.17;;;1.38;;
59974;SDS011;62136;-35.664;-63.766;2023-08-12T00:12:03;5.75;;;1.48;;
59974;SDS011;62136;-35.664;-63.766;2023-08-12T00:14:30;4.20;;;1.10;;
59974;SDS011;62136;-35.664;-63.766;2023-08-12T00:16:57;3.38;;;1.38;;
59974;SDS011;62136;-35.664;-63.766;2023-08-12T00:19:24;2.95;;;1.60;;
59974;SDS011;62136;-35.664;-63.766;2023-08-12T00:21:51;3.03;;;1.52;;
59974;SDS011;62136;-35.664;-63.766;2023-08-12T00:24:18;3.97;;;1.58;;
59974;SDS011;62136;-35.664;-63.766;2023-08-12T00:26:45;3.13;;;1.33;;
59974;SDS011;62136;-35.664;-63.766;2023-08-12T00:29:12;6.65;;;1.67;;
59974;SDS011;62136;-35.664;-63.766;2023-08-12T00:31:39;2.35;;;1.45;;
59974;SDS011;62136;-35.664;-63.766;2023-08-12T00:34:06;4.90;;;1.52;;
59974;SDS011;62136;-35.664;-63.766;2023-08-12T00:36:33;5.15;;;1.40;;
59974;SDS011;62136;-35.664;-63.766;2023-08-12T00:39:00;1.58;;;1.30;;
59974;SDS011;62136;-35.664;-63.766;2023-08-12T00:41:27;4.18;;;1.30;;
59974;SDS011;62136;-35.664;-63.766;2023-08-12T00:43:54;3.53;;;1.40;;
59974;SDS011;62136;-35.664;-63.766;2023-08-12T00:46:21;2.80;;;1.40;;
59974;SDS011;62136;-35.664;-63.766;2023-08-12T00:48:49;2.65;;;1.58;;
59974;SDS011;62136;-35.664;-63.766;2023-08-12T00:51:20;4.70;;;2.08;;
59974;SDS011;62136;-35.664;-63.766;2023-08-12T00:53:47;3.03;;;1.80;;
59974;SDS011;62136;-35.664;-63.766;2023-08-12T00:56:16;2.25;;;1.45;;
59974;SDS011;62136;-35.664;-63.766;2023-08-12T00:58:44;5.95;;;1.67;;
59974;SDS011;62136;-35.664;-63.766;2023-08-12T01:01:11;4.15;;;1.50;;
59974;SDS011;62136;-35.664;-63.766;2023-08-12T01:03:39;3.50;;;1.50;;
59974;SDS011;62136;-35.664;-63.766;2023-08-12T01:06:06;2.90;;;1.38;;
59974;SDS011;62136;-35.664;-63.766;2023-08-12T01:08:32;2.33;;;1.40;;
59974;SDS011;62136;-35.664;-63.766;2023-08-12T01:13:59;3.35;;;1.45;;
59974;SDS011;62136;-35.664;-63.766;2023-08-12T01:16:54;4.00;;;1.80;;
59974;SDS011;62136;-35.664;-63.766;2023-08-12T01:19:35;2.25;;;1.48;;
59974;SDS011;62136;-35.664;-63.766;2023-08-12T01:22:07;2.13;;;1.52;;
59974;SDS011;62136;-35.664;-63.766;2023-08-12T01:24:37;3.92;;;1.90;;
59974;SDS011;62136;-35.664;-63.766;2023-08-12T01:27:05;4.43;;;2.03;;
59974;SDS011;62136;-35.664;-63.766;2023-08-12T01:29:34;3.00;;;1.60;;
59974;SDS011;62136;-35.664;-63.766;2023-08-12T01:37:50;4.63;;;1.77;;
59974;SDS011;62136;-35.664;-63.766;2023-08-12T01:40:18;2.35;;;1.60;;
59974;SDS011;62136;-35.664;-63.766;2023-08-12T01:42:46;2.50;;;1.50;;
59974;SDS011;62136;-35.664;-63.766;2023-08-12T01:45:14;3.38;;;1.50;;
59974;SDS011;62136;-35.664;-63.766;2023-08-12T01:47:44;3.83;;;1.80;;
59974;SDS011;62136;-35.664;-63.766;2023-08-12T01:50:11;2.28;;;1.48;;
59974;SDS011;62136;-35.664;-63.766;2023-08-12T01:52:38;3.35;;;1.73;;
59974;SDS011;62136;-35.664;-63.766;2023-08-12T01:55:05;3.88;;;1.70;;
59974;SDS011;62136;-35.664;-63.766;2023-08-12T01:57:33;2.63;;;1.50;;
59974;SDS011;62136;-35.664;-63.766;2023-08-12T02:00:01;3.72;;;1.60;;
59974;SDS011;62136;-35.664;-63.766;2023-08-12T02:02:32;6.45;;;2.38;;
59974;SDS011;62136;-35.664;-63.766;2023-08-12T02:05:01;4.38;;;1.67;;
59974;SDS011;62136;-35.664;-63.766;2023-08-12T02:07:29;3.33;;;1.58;;
59974;SDS011;62136;-35.664;-63.766;2023-08-12T02:09:55;3.28;;;1.70;;
59974;SDS011;62136;-35.664;-63.766;2023-08-12T02:12:22;3.90;;;1.70;;
59974;SDS011;62136;-35.664;-63.766;2023-08-12T02:14:49;4.65;;;1.67;;
59974;SDS011;62136;-35.664;-63.766;2023-08-12T02:17:16;3.15;;;1.70;;
59974;SDS011;62136;-35.664;-63.766;2023-08-12T02:19:43;3.55;;;1.55;;
59974;SDS011;62136;-35.664;-63.766;2023-08-12T02:22:10;4.68;;;1.98;;
59974;SDS011;62136;-35.664;-63.766;2023-08-12T02:24:40;3.70;;;1.75;;
59974;SDS011;62136;-35.664;-63.766;2023-08-12T02:27:07;2.92;;;1.73;;
59974;SDS011;62136;-35.664;-63.766;2023-08-12T02:29:34;3.72;;;1.67;;
59974;SDS011;62136;-35.664;-63.766;2023-08-12T02:32:04;3.88;;;1.67;;
59974;SDS011;62136;-35.664;-63.766;2023-08-12T02:34:31;5.05;;;1.90;;
59974;SDS011;62136;-35.664;-63.766;2023-08-12T02:36:58;3.42;;;1.70;;
59974;SDS011;62136;-35.664;-63.766;2023-08-12T02:39:25;5.32;;;1.75;;
59974;SDS011;62136;-35.664;-63.766;2023-08-12T02:41:52;2.20;;;1.40;;
59974;SDS011;62136;-35.664;-63.766;2023-08-12T02:44:19;6.72;;;1.90;;
59974;SDS011;62136;-35.664;-63.766;2023-08-12T02:46:46;2.67;;;1.50;;
59974;SDS011;62136;-35.664;-63.766;2023-08-12T02:49:16;2.42;;;1.58;;
59974;SDS011;62136;-35.664;-63.766;2023-08-12T02:51:46;4.50;;;1.90;;
59974;SDS011;62136;-35.664;-63.766;2023-08-12T02:54:16;3.85;;;1.80;;
59974;SDS011;62136;-35.664;-63.766;2023-08-12T02:56:43;4.53;;;1.83;;
59974;SDS011;62136;-35.664;-63.766;2023-08-12T02:59:10;4.50;;;2.47;;
59974;SDS011;62136;-35.664;-63.766;2023-08-12T03:01:37;3.55;;;1.52;;
59974;SDS011;62136;-35.664;-63.766;2023-08-12T03:04:06;2.65;;;1.65;;
59974;SDS011;62136;-35.664;-63.766;2023-08-12T03:06:33;3.30;;;2.08;;
59974;SDS011;62136;-35.664;-63.766;2023-08-12T03:09:00;2.63;;;1.38;;
59974;SDS011;62136;-35.664;-63.766;2023-08-12T03:11:27;2.53;;;1.88;;
59974;SDS011;62136;-35.664;-63.766;2023-08-12T03:13:54;2.05;;;1.63;;
59974;SDS011;62136;-35.664;-63.766;2023-08-12T03:16:21;3.53;;;1.73;;
59974;SDS011;62136;-35.664;-63.766;2023-08-12T03:18:48;2.97;;;2.05;;
59974;SDS011;62136;-35.664;-63.766;2023-08-12T03:21:15;3.08;;;1.58;;
59974;SDS011;62136;-35.664;-63.766;2023-08-12T03:23:42;2.85;;;1.80;;
59974;SDS011;62136;-35.664;-63.766;2023-08-12T03:26:10;3.03;;;1.50;;
59974;SDS011;62136;-35.664;-63.766;2023-08-12T03:28:37;3.90;;;1.58;;
59974;SDS011;62136;-35.664;-63.766;2023-08-12T03:31:04;2.35;;;1.35;;
59974;SDS011;62136;-35.664;-63.766;2023-08-12T03:33:31;3.25;;;1.60;;
59974;SDS011;62136;-35.664;-63.766;2023-08-12T03:36:02;3.92;;;1.33;;
59974;SDS011;62136;-35.664;-63.766;2023-08-12T03:38:29;4.32;;;1.67;;
59974;SDS011;62136;-35.664;-63.766;2023-08-12T03:41:01;3.28;;;1.60;;
59974;SDS011;62136;-35.664;-63.766;2023-08-12T03:43:29;3.10;;;1.55;;
59974;SDS011;62136;-35.664;-63.766;2023-08-12T03:45:56;4.53;;;1.80;;
59974;SDS011;62136;-35.664;-63.766;2023-08-12T03:48:23;3.17;;;1.55;;
59974;SDS011;62136;-35.664;-63.766;2023-08-12T03:50:50;3.42;;;1.50;;
59974;SDS011;62136;-35.664;-63.766;2023-08-12T03:53:17;4.22;;;1.65;;
59974;SDS011;62136;-35.664;-63.766;2023-08-12T03:55:44;4.05;;;1.60;;
59974;SDS011;62136;-35.664;-63.766;2023-08-12T03:58:11;2.17;;;1.58;;
59974;SDS011;62136;-35.664;-63.766;2023-08-12T04:00:41;3.28;;;1.58;;
59974;SDS011;62136;-35.664;-63.766;2023-08-12T04:03:11;3.05;;;2.00;;
59974;SDS011;62136;-35.664;-63.766;2023-08-12T04:05:46;3.13;;;1.55;;
59974;SDS011;62136;-35.664;-63.766;2023-08-12T04:08:14;3.55;;;1.88;;
59974;SDS011;62136;-35.664;-63.766;2023-08-12T04:10:44;2.97;;;1.52;;
59974;SDS011;62136;-35.664;-63.766;2023-08-12T04:13:11;3.10;;;1.77;;
59974;SDS011;62136;-35.664;-63.766;2023-08-12T04:15:40;3.42;;;1.70;;
59974;SDS011;62136;-35.664;-63.766;2023-08-12T04:18:10;3.70;;;2.00;;
59974;SDS011;62136;-35.664;-63.766;2023-08-12T04:20:46;4.10;;;2.03;;
59974;SDS011;62136;-35.664;-63.766;2023-08-12T04:23:19;3.88;;;1.67;;
59974;SDS011;62136;-35.664;-63.766;2023-08-12T04:25:46;3.40;;;1.80;;
59974;SDS011;62136;-35.664;-63.766;2023-08-12T04:28:14;4.57;;;2.00;;
59974;SDS011;62136;-35.664;-63.766;2023-08-12T04:30:42;3.60;;;1.88;;
59974;SDS011;62136;-35.664;-63.766;2023-08-12T04:33:11;4.43;;;1.88;;
59974;SDS011;62136;-35.664;-63.766;2023-08-12T04:35:39;3.78;;;1.92;;
59974;SDS011;62136;-35.664;-63.766;2023-08-12T04:38:07;4.50;;;1.67;;
59974;SDS011;62136;-35.664;-63.766;2023-08-12T04:40:34;2.67;;;1.63;;
59974;SDS011;62136;-35.664;-63.766;2023-08-12T04:43:08;2.73;;;1.60;;
59974;SDS011;62136;-35.664;-63.766;2023-08-12T04:45:35;3.20;;;1.52;;
59974;SDS011;62136;-35.664;-63.766;2023-08-12T04:48:03;2.35;;;1.63;;
59974;SDS011;62136;-35.664;-63.766;2023-08-12T04:50:31;5.18;;;1.80;;
59974;SDS011;62136;-35.664;-63.766;2023-08-12T04:53:00;3.35;;;1.80;;
59974;SDS011;62136;-35.664;-63.766;2023-08-12T04:55:27;5.47;;;1.50;;
59974;SDS011;62136;-35.664;-63.766;2023-08-12T04:57:54;3.10;;;1.73;;
59974;SDS011;62136;-35.664;-63.766;2023-08-12T05:00:21;2.78;;;1.63;;
59974;SDS011;62136;-35.664;-63.766;2023-08-12T05:02:49;2.50;;;1.85;;
59974;SDS011;62136;-35.664;-63.766;2023-08-12T05:05:16;2.10;;;1.60;;
59974;SDS011;62136;-35.664;-63.766;2023-08-12T05:07:43;5.20;;;1.92;;
59974;SDS011;62136;-35.664;-63.766;2023-08-12T05:10:15;2.95;;;1.50;;
59974;SDS011;62136;-35.664;-63.766;2023-08-12T05:12:42;4.15;;;1.90;;
59974;SDS011;62136;-35.664;-63.766;2023-08-12T05:15:11;3.70;;;1.80;;
59974;SDS011;62136;-35.664;-63.766;2023-08-12T05:17:38;2.20;;;1.67;;
59974;SDS011;62136;-35.664;-63.766;2023-08-12T05:20:05;2.53;;;1.50;;
59974;SDS011;62136;-35.664;-63.766;2023-08-12T05:22:34;2.78;;;1.73;;
59974;SDS011;62136;-35.664;-63.766;2023-08-12T05:25:00;2.90;;;1.65;;
59974;SDS011;62136;-35.664;-63.766;2023-08-12T05:27:28;3.47;;;1.80;;
59974;SDS011;62136;-35.664;-63.766;2023-08-12T05:29:55;2.65;;;1.60;;
59974;SDS011;62136;-35.664;-63.766;2023-08-12T05:32:22;1.60;;;1.30;;
59974;SDS011;62136;-35.664;-63.766;2023-08-12T05:34:52;2.05;;;1.45;;
59974;SDS011;62136;-35.664;-63.766;2023-08-12T05:37:21;3.30;;;1.67;;
59974;SDS011;62136;-35.664;-63.766;2023-08-12T05:39:48;2.80;;;1.50;;
59974;SDS011;62136;-35.664;-63.766;2023-08-12T05:42:15;3.20;;;1.58;;
59974;SDS011;62136;-35.664;-63.766;2023-08-12T05:44:42;3.20;;;1.60;;
59974;SDS011;62136;-35.664;-63.766;2023-08-12T05:47:09;3.00;;;1.55;;
59974;SDS011;62136;-35.664;-63.766;2023-08-12T05:49:36;3.60;;;1.30;;
59974;SDS011;62136;-35.664;-63.766;2023-08-12T05:52:03;3.40;;;1.40;;
59974;SDS011;62136;-35.664;-63.766;2023-08-12T05:54:30;2.85;;;1.15;;
59974;SDS011;62136;-35.664;-63.766;2023-08-12T05:56:58;3.50;;;1.65;;
59974;SDS011;62136;-35.664;-63.766;2023-08-12T05:59:25;2.60;;;1.52;;
59974;SDS011;62136;-35.664;-63.766;2023-08-12T06:01:53;2.60;;;1.27;;
59974;SDS011;62136;-35.664;-63.766;2023-08-12T06:04:20;1.90;;;1.33;;
59974;SDS011;62136;-35.664;-63.766;2023-08-12T06:06:47;3.75;;;1.50;;
59974;SDS011;62136;-35.664;-63.766;2023-08-12T06:09:14;2.03;;;1.30;;
59974;SDS011;62136;-35.664;-63.766;2023-08-12T06:11:41;3.00;;;1.50;;
59974;SDS011;62136;-35.664;-63.766;2023-08-12T06:14:08;1.67;;;1.15;;
59974;SDS011;62136;-35.664;-63.766;2023-08-12T06:16:35;2.85;;;1.50;;
59974;SDS011;62136;-35.664;-63.766;2023-08-12T06:19:03;3.85;;;1.52;;
59974;SDS011;62136;-35.664;-63.766;2023-08-12T06:21:30;3.15;;;1.80;;
59974;SDS011;62136;-35.664;-63.766;2023-08-12T06:23:57;2.58;;;1.20;;
59974;SDS011;62136;-35.664;-63.766;2023-08-12T06:26:24;2.35;;;1.65;;
59974;SDS011;62136;-35.664;-63.766;2023-08-12T06:28:51;2.80;;;1.25;;
59974;SDS011;62136;-35.664;-63.766;2023-08-12T06:31:18;2.20;;;1.00;;
59974;SDS011;62136;-35.664;-63.766;2023-08-12T06:33:45;4.38;;;1.40;;
59974;SDS011;62136;-35.664;-63.766;2023-08-12T06:36:12;1.80;;;1.17;;
59974;SDS011;62136;-35.664;-63.766;2023-08-12T06:38:42;2.17;;;1.20;;
59974;SDS011;62136;-35.664;-63.766;2023-08-12T06:41:09;2.60;;;1.40;;
59974;SDS011;62136;-35.664;-63.766;2023-08-12T06:43:36;2.42;;;1.35;;
59974;SDS011;62136;-35.664;-63.766;2023-08-12T06:46:03;1.80;;;1.17;;
59974;SDS011;62136;-35.664;-63.766;2023-08-12T06:48:30;1.67;;;1.13;;
59974;SDS011;62136;-35.664;-63.766;2023-08-12T06:50:57;2.50;;;1.10;;
59974;SDS011;62136;-35.664;-63.766;2023-08-12T06:53:24;3.03;;;1.30;;
59974;SDS011;62136;-35.664;-63.766;2023-08-12T06:55:52;2.30;;;1.20;;
59974;SDS011;62136;-35.664;-63.766;2023-08-12T06:58:20;3.72;;;1.42;;
59974;SDS011;62136;-35.664;-63.766;2023-08-12T07:00:47;1.98;;;1.30;;
59974;SDS011;62136;-35.664;-63.766;2023-08-12T07:03:14;2.42;;;1.40;;
59974;SDS011;62136;-35.664;-63.766;2023-08-12T07:05:41;3.22;;;1.08;;
59974;SDS011;62136;-35.664;-63.766;2023-08-12T07:08:08;1.40;;;1.10;;
59974;SDS011;62136;-35.664;-63.766;2023-08-12T07:10:38;2.63;;;1.48;;
59974;SDS011;62136;-35.664;-63.766;2023-08-12T07:13:06;1.65;;;1.20;;
59974;SDS011;62136;-35.664;-63.766;2023-08-12T07:15:33;2.50;;;1.30;;
59974;SDS011;62136;-35.664;-63.766;2023-08-12T07:18:00;4.22;;;1.20;;
59974;SDS011;62136;-35.664;-63.766;2023-08-12T07:20:27;1.15;;;1.05;;
59974;SDS011;62136;-35.664;-63.766;2023-08-12T07:22:54;2.80;;;1.20;;
59974;SDS011;62136;-35.664;-63.766;2023-08-12T07:25:21;1.00;;;0.90;;
59974;SDS011;62136;-35.664;-63.766;2023-08-12T07:27:48;2.17;;;1.20;;
59974;SDS011;62136;-35.664;-63.766;2023-08-12T07:30:18;3.78;;;1.17;;
59974;SDS011;62136;-35.664;-63.766;2023-08-12T07:32:45;1.45;;;1.30;;
59974;SDS011;62136;-35.664;-63.766;2023-08-12T07:35:12;1.45;;;1.33;;
59974;SDS011;62136;-35.664;-63.766;2023-08-12T07:37:39;1.48;;;1.10;;
59974;SDS011;62136;-35.664;-63.766;2023-08-12T07:40:07;2.10;;;1.17;;
59974;SDS011;62136;-35.664;-63.766;2023-08-12T07:42:34;1.23;;;0.85;;
59974;SDS011;62136;-35.664;-63.766;2023-08-12T07:45:01;2.28;;;1.40;;
59974;SDS011;62136;-35.664;-63.766;2023-08-12T07:47:28;1.88;;;0.90;;
59974;SDS011;62136;-35.664;-63.766;2023-08-12T07:49:55;2.30;;;1.10;;
59974;SDS011;62136;-35.664;-63.766;2023-08-12T07:52:22;2.13;;;0.98;;
59974;SDS011;62136;-35.664;-63.766;2023-08-12T07:54:49;2.03;;;1.00;;
59974;SDS011;62136;-35.664;-63.766;2023-08-12T07:57:16;2.17;;;0.88;;
59974;SDS011;62136;-35.664;-63.766;2023-08-12T07:59:45;1.33;;;1.00;;
59974;SDS011;62136;-35.664;-63.766;2023-08-12T08:02:13;1.25;;;1.00;;
59974;SDS011;62136;-35.664;-63.766;2023-08-12T08:04:40;2.35;;;1.20;;
59974;SDS011;62136;-35.664;-63.766;2023-08-12T08:07:07;0.90;;;0.80;;
59974;SDS011;62136;-35.664;-63.766;2023-08-12T08:09:34;1.92;;;1.02;;
59974;SDS011;62136;-35.664;-63.766;2023-08-12T08:12:01;2.28;;;1.05;;
59974;SDS011;62136;-35.664;-63.766;2023-08-12T08:14:29;2.10;;;1.25;;
59974;SDS011;62136;-35.664;-63.766;2023-08-12T08:16:56;1.33;;;0.95;;
59974;SDS011;62136;-35.664;-63.766;2023-08-12T08:19:23;1.27;;;1.02;;
59974;SDS011;62136;-35.664;-63.766;2023-08-12T08:21:50;1.85;;;0.95;;
59974;SDS011;62136;-35.664;-63.766;2023-08-12T08:24:17;1.70;;;0.77;;
59974;SDS011;62136;-35.664;-63.766;2023-08-12T08:26:44;3.35;;;1.10;;
59974;SDS011;62136;-35.664;-63.766;2023-08-12T08:29:12;3.03;;;1.40;;
59974;SDS011;62136;-35.664;-63.766;2023-08-12T08:31:39;2.03;;;0.88;;
59974;SDS011;62136;-35.664;-63.766;2023-08-12T08:34:06;1.67;;;0.73;;
59974;SDS011;62136;-35.664;-63.766;2023-08-12T08:36:35;1.75;;;0.85;;
59974;SDS011;62136;-35.664;-63.766;2023-08-12T08:39:02;1.40;;;1.00;;
59974;SDS011;62136;-35.664;-63.766;2023-08-12T08:41:30;1.33;;;1.00;;
59974;SDS011;62136;-35.664;-63.766;2023-08-12T08:44:01;1.42;;;1.00;;
59974;SDS011;62136;-35.664;-63.766;2023-08-12T08:46:32;0.70;;;0.70;;
59974;SDS011;62136;-35.664;-63.766;2023-08-12T08:49:00;2.97;;;1.15;;
59974;SDS011;62136;-35.664;-63.766;2023-08-12T08:51:30;1.17;;;1.08;;
59974;SDS011;62136;-35.664;-63.766;2023-08-12T08:53:58;1.00;;;0.90;;
59974;SDS011;62136;-35.664;-63.766;2023-08-12T08:56:25;0.75;;;0.75;;
59974;SDS011;62136;-35.664;-63.766;2023-08-12T08:58:52;1.30;;;0.93;;
59974;SDS011;62136;-35.664;-63.766;2023-08-12T09:01:20;2.03;;;1.00;;
59974;SDS011;62136;-35.664;-63.766;2023-08-12T09:03:47;1.23;;;0.85;;
59974;SDS011;62136;-35.664;-63.766;2023-08-12T09:06:21;1.30;;;1.02;;
59974;SDS011;62136;-35.664;-63.766;2023-08-12T09:08:51;3.95;;;1.33;;
59974;SDS011;62136;-35.664;-63.766;2023-08-12T09:11:18;1.02;;;0.80;;
59974;SDS011;62136;-35.664;-63.766;2023-08-12T09:13:46;1.90;;;0.90;;
59974;SDS011;62136;-35.664;-63.766;2023-08-12T09:16:14;0.93;;;0.73;;
59974;SDS011;62136;-35.664;-63.766;2023-08-12T09:18:44;1.10;;;1.00;;
59974;SDS011;62136;-35.664;-63.766;2023-08-12T09:21:11;1.90;;;0.90;;
59974;SDS011;62136;-35.664;-63.766;2023-08-12T09:23:39;1.00;;;0.90;;
59974;SDS011;62136;-35.664;-63.766;2023-08-12T09:26:12;1.85;;;1.00;;
59974;SDS011;62136;-35.664;-63.766;2023-08-12T09:28:43;1.38;;;0.88;;
59974;SDS011;62136;-35.664;-63.766;2023-08-12T09:31:32;1.70;;;0.95;;
59974;SDS011;62136;-35.664;-63.766;2023-08-12T09:33:59;1.73;;;1.10;;
59974;SDS011;62136;-35.664;-63.766;2023-08-12T09:36:30;1.08;;;0.82;;
59974;SDS011;62136;-35.664;-63.766;2023-08-12T09:39:00;1.48;;;0.80;;
59974;SDS011;62136;-35.664;-63.766;2023-08-12T09:41:37;1.65;;;0.88;;
59974;SDS011;62136;-35.664;-63.766;2023-08-12T09:44:05;1.95;;;0.70;;
59974;SDS011;62136;-35.664;-63.766;2023-08-12T09:46:35;1.13;;;0.80;;
59974;SDS011;62136;-35.664;-63.766;2023-08-12T09:49:04;0.95;;;0.63;;
59974;SDS011;62136;-35.664;-63.766;2023-08-12T09:51:35;1.23;;;0.70;;
59974;SDS011;62136;-35.664;-63.766;2023-08-12T09:54:02;0.73;;;0.70;;
59974;SDS011;62136;-35.664;-63.766;2023-08-12T09:56:30;1.70;;;0.90;;
59974;SDS011;62136;-35.664;-63.766;2023-08-12T09:59:04;1.73;;;0.82;;
59974;SDS011;62136;-35.664;-63.766;2023-08-12T10:01:32;0.93;;;0.63;;
59974;SDS011;62136;-35.664;-63.766;2023-08-12T10:04:01;1.25;;;0.98;;
59974;SDS011;62136;-35.664;-63.766;2023-08-12T10:06:31;1.92;;;1.10;;
59974;SDS011;62136;-35.664;-63.766;2023-08-12T10:08:59;1.05;;;0.73;;
59974;SDS011;62136;-35.664;-63.766;2023-08-12T10:11:27;1.98;;;0.85;;
59974;SDS011;62136;-35.664;-63.766;2023-08-12T10:13:54;1.63;;;0.80;;
59974;SDS011;62136;-35.664;-63.766;2023-08-12T10:16:23;1.55;;;0.80;;
59974;SDS011;62136;-35.664;-63.766;2023-08-12T10:18:50;1.35;;;0.70;;
59974;SDS011;62136;-35.664;-63.766;2023-08-12T10:21:18;2.10;;;0.90;;
59974;SDS011;62136;-35.664;-63.766;2023-08-12T10:23:46;1.55;;;0.60;;
59974;SDS011;62136;-35.664;-63.766;2023-08-12T10:26:14;1.55;;;1.17;;
59974;SDS011;62136;-35.664;-63.766;2023-08-12T10:28:41;1.27;;;0.80;;
59974;SDS011;62136;-35.664;-63.766;2023-08-12T10:31:10;0.73;;;0.50;;
59974;SDS011;62136;-35.664;-63.766;2023-08-12T10:33:38;0.80;;;0.70;;
59974;SDS011;62136;-35.664;-63.766;2023-08-12T10:36:06;1.02;;;0.80;;
59974;SDS011;62136;-35.664;-63.766;2023-08-12T10:38:34;1.40;;;0.63;;
59974;SDS011;62136;-35.664;-63.766;2023-08-12T10:49:01;1.33;;;0.60;;
59974;SDS011;62136;-35.664;-63.766;2023-08-12T10:51:40;1.88;;;0.60;;
59974;SDS011;62136;-35.664;-63.766;2023-08-12T11:04:53;1.67;;;0.80;;
59974;SDS011;62136;-35.664;-63.766;2023-08-12T11:07:46;2.03;;;0.77;;
59974;SDS011;62136;-35.664;-63.766;2023-08-12T11:10:23;0.57;;;0.57;;
59974;SDS011;62136;-35.664;-63.766;2023-08-12T11:15:29;0.63;;;0.60;;
59974;SDS011;62136;-35.664;-63.766;2023-08-12T11:18:06;0.95;;;0.70;;
59974;SDS011;62136;-35.664;-63.766;2023-08-12T11:20:36;2.17;;;0.60;;
59974;SDS011;62136;-35.664;-63.766;2023-08-12T11:23:04;1.85;;;0.70;;
59974;SDS011;62136;-35.664;-63.766;2023-08-12T11:25:33;1.38;;;0.95;;
59974;SDS011;62136;-35.664;-63.766;2023-08-12T11:28:01;1.65;;;0.60;;
59974;SDS011;62136;-35.664;-63.766;2023-08-12T11:30:29;0.73;;;0.73;;
59974;SDS011;62136;-35.664;-63.766;2023-08-12T11:32:57;1.27;;;0.70;;
59974;SDS011;62136;-35.664;-63.766;2023-08-12T11:35:28;1.63;;;0.57;;
59974;SDS011;62136;-35.664;-63.766;2023-08-12T11:37:56;1.80;;;0.80;;
59974;SDS011;62136;-35.664;-63.766;2023-08-12T11:40:27;0.70;;;0.70;;
59974;SDS011;62136;-35.664;-63.766;2023-08-12T11:42:54;0.80;;;0.70;;
59974;SDS011;62136;-35.664;-63.766;2023-08-12T11:45:23;1.20;;;0.43;;
59974;SDS011;62136;-35.664;-63.766;2023-08-12T11:47:51;0.77;;;0.60;;
59974;SDS011;62136;-35.664;-63.766;2023-08-12T11:50:19;1.42;;;0.80;;
59974;SDS011;62136;-35.664;-63.766;2023-08-12T11:52:48;1.73;;;0.60;;
59974;SDS011;62136;-35.664;-63.766;2023-08-12T11:55:17;0.95;;;0.85;;
59974;SDS011;62136;-35.664;-63.766;2023-08-12T11:57:45;1.30;;;0.60;;
59974;SDS011;62136;-35.664;-63.766;2023-08-12T12:00:13;0.95;;;0.68;;
59974;SDS011;62136;-35.664;-63.766;2023-08-12T12:02:53;1.88;;;0.80;;
59974;SDS011;62136;-35.664;-63.766;2023-08-12T12:05:30;1.30;;;0.70;;
59974;SDS011;62136;-35.664;-63.766;2023-08-12T12:07:58;0.63;;;0.60;;
59974;SDS011;62136;-35.664;-63.766;2023-08-12T12:10:27;1.02;;;0.80;;
59974;SDS011;62136;-35.664;-63.766;2023-08-12T12:12:58;1.70;;;0.68;;
59974;SDS011;62136;-35.664;-63.766;2023-08-12T12:15:26;1.02;;;0.70;;
59974;SDS011;62136;-35.664;-63.766;2023-08-12T12:17:53;1.40;;;0.70;;
59974;SDS011;62136;-35.664;-63.766;2023-08-12T12:20:20;1.13;;;0.80;;
59974;SDS011;62136;-35.664;-63.766;2023-08-12T12:22:48;2.10;;;0.75;;
59974;SDS011;62136;-35.664;-63.766;2023-08-12T12:25:16;1.00;;;0.70;;
59974;SDS011;62136;-35.664;-63.766;2023-08-12T12:27:45;1.00;;;0.93;;
59974;SDS011;62136;-35.664;-63.766;2023-08-12T12:30:13;1.40;;;0.93;;
59974;SDS011;62136;-35.664;-63.766;2023-08-12T12:32:41;1.45;;;0.90;;
59974;SDS011;62136;-35.664;-63.766;2023-08-12T12:35:08;0.93;;;0.73;;
59974;SDS011;62136;-35.664;-63.766;2023-08-12T12:37:36;1.38;;;0.70;;
59974;SDS011;62136;-35.664;-63.766;2023-08-12T12:40:03;1.15;;;1.00;;
59974;SDS011;62136;-35.664;-63.766;2023-08-12T12:42:32;0.95;;;0.80;;
59974;SDS011;62136;-35.664;-63.766;2023-08-12T12:44:59;1.63;;;0.70;;
59974;SDS011;62136;-35.664;-63.766;2023-08-12T12:47:26;0.98;;;0.77;;
59974;SDS011;62136;-35.664;-63.766;2023-08-12T12:49:53;1.02;;;0.82;;
59974;SDS011;62136;-35.664;-63.766;2023-08-12T12:52:20;1.92;;;0.90;;
59974;SDS011;62136;-35.664;-63.766;2023-08-12T12:54:47;1.30;;;0.90;;
59974;SDS011;62136;-35.664;-63.766;2023-08-12T12:57:15;1.27;;;0.63;;
59974;SDS011;62136;-35.664;-63.766;2023-08-12T12:59:42;1.92;;;0.88;;
59974;SDS011;62136;-35.664;-63.766;2023-08-12T13:02:09;1.98;;;0.98;;
59974;SDS011;62136;-35.664;-63.766;2023-08-12T13:04:36;1.73;;;0.90;;
59974;SDS011;62136;-35.664;-63.766;2023-08-12T13:07:03;0.80;;;0.75;;
59974;SDS011;62136;-35.664;-63.766;2023-08-12T13:09:30;1.02;;;0.68;;
59974;SDS011;62136;-35.664;-63.766;2023-08-12T13:11:57;1.90;;;0.82;;
59974;SDS011;62136;-35.664;-63.766;2023-08-12T13:14:24;1.38;;;0.70;;
59974;SDS011;62136;-35.664;-63.766;2023-08-12T13:16:54;0.90;;;0.90;;
59974;SDS011;62136;-35.664;-63.766;2023-08-12T13:19:21;1.05;;;0.80;;
59974;SDS011;62136;-35.664;-63.766;2023-08-12T13:21:48;2.45;;;0.95;;
59974;SDS011;62136;-35.664;-63.766;2023-08-12T13:24:15;3.13;;;0.80;;
59974;SDS011;62136;-35.664;-63.766;2023-08-12T13:26:42;1.88;;;0.75;;
59974;SDS011;62136;-35.664;-63.766;2023-08-12T13:29:09;1.17;;;0.73;;
59974;SDS011;62136;-35.664;-63.766;2023-08-12T13:31:36;2.33;;;1.02;;
59974;SDS011;62136;-35.664;-63.766;2023-08-12T13:34:04;0.80;;;0.70;;
59974;SDS011;62136;-35.664;-63.766;2023-08-12T13:36:31;1.08;;;0.77;;
59974;SDS011;62136;-35.664;-63.766;2023-08-12T13:38:58;0.93;;;0.80;;
59974;SDS011;62136;-35.664;-63.766;2023-08-12T13:41:25;1.60;;;1.00;;
59974;SDS011;62136;-35.664;-63.766;2023-08-12T13:43:52;1.58;;;0.70;;
59974;SDS011;62136;-35.664;-63.766;2023-08-12T13:46:19;2.15;;;0.70;;
59974;SDS011;62136;-35.664;-63.766;2023-08-12T13:48:46;0.65;;;0.65;;
59974;SDS011;62136;-35.664;-63.766;2023-08-12T13:51:13;0.70;;;0.70;;
59974;SDS011;62136;-35.664;-63.766;2023-08-12T13:53:40;1.35;;;0.80;;
59974;SDS011;62136;-35.664;-63.766;2023-08-12T13:56:07;1.25;;;0.80;;
59974;SDS011;62136;-35.664;-63.766;2023-08-12T13:58:34;1.45;;;1.00;;
59974;SDS011;62136;-35.664;-63.766;2023-08-12T14:01:01;1.20;;;0.70;;
59974;SDS011;62136;-35.664;-63.766;2023-08-12T14:03:28;0.98;;;0.52;;
59974;SDS011;62136;-35.664;-63.766;2023-08-12T14:05:56;1.90;;;0.80;;
59974;SDS011;62136;-35.664;-63.766;2023-08-12T14:08:23;1.25;;;0.63;;
59974;SDS011;62136;-35.664;-63.766;2023-08-12T14:10:50;1.67;;;0.90;;
59974;SDS011;62136;-35.664;-63.766;2023-08-12T14:13:17;1.30;;;0.80;;
59974;SDS011;62136;-35.664;-63.766;2023-08-12T14:15:44;1.67;;;0.82;;
59974;SDS011;62136;-35.664;-63.766;2023-08-12T14:18:11;1.00;;;0.80;;
59974;SDS011;62136;-35.664;-63.766;2023-08-12T14:20:38;1.20;;;0.75;;
59974;SDS011;62136;-35.664;-63.766;2023-08-12T14:23:05;0.77;;;0.77;;
59974;SDS011;62136;-35.664;-63.766;2023-08-12T14:25:34;1.15;;;0.80;;
59974;SDS011;62136;-35.664;-63.766;2023-08-12T14:28:01;2.45;;;0.90;;
59974;SDS011;62136;-35.664;-63.766;2023-08-12T14:30:28;0.70;;;0.70;;
59974;SDS011;62136;-35.664;-63.766;2023-08-12T14:32:55;1.02;;;0.85;;
59974;SDS011;62136;-35.664;-63.766;2023-08-12T14:35:23;1.13;;;0.65;;
59974;SDS011;62136;-35.664;-63.766;2023-08-12T14:37:50;0.85;;;0.70;;
59974;SDS011;62136;-35.664;-63.766;2023-08-12T14:40:17;0.80;;;0.70;;
59974;SDS011;62136;-35.664;-63.766;2023-08-12T14:42:45;1.15;;;0.70;;
59974;SDS011;62136;-35.664;-63.766;2023-08-12T14:45:12;0.85;;;0.75;;